createdAt,value
2022-07-30T00:02:39.388Z,19.45
2022-07-30T00:05:27.211Z,19.41
2022-07-30T00:07:54.799Z,19.41
2022-07-30T00:10:23.277Z,19.40
2022-07-30T00:12:51.083Z,19.40
2022-07-30T00:15:39.004Z,19.34
2022-07-30T00:18:06.845Z,19.31
2022-07-30T00:20:34.328Z,19.28
2022-07-30T00:23:04.468Z,19.27
2022-07-30T00:25:32.049Z,19.26
2022-07-30T00:27:59.724Z,19.28
2022-07-30T00:30:27.345Z,19.26
2022-07-30T00:32:54.931Z,19.26
2022-07-30T00:35:22.453Z,19.25
2022-07-30T00:37:49.948Z,19.23
2022-07-30T00:40:17.637Z,19.20
2022-07-30T00:42:47.526Z,19.23
2022-07-30T00:45:17.265Z,19.24
2022-07-30T00:47:46.268Z,19.25
2022-07-30T00:50:15.169Z,19.26
2022-07-30T00:52:43.579Z,19.23
2022-07-30T00:55:15.273Z,19.22
2022-07-30T00:57:43.776Z,19.20
2022-07-30T01:00:17.799Z,19.19
2022-07-30T01:02:45.317Z,19.19
2022-07-30T01:05:14.829Z,19.16
2022-07-30T01:07:42.782Z,19.12
2022-07-30T01:10:17.265Z,19.08
2022-07-30T01:12:46.508Z,19.06
2022-07-30T01:15:14.471Z,19.09
2022-07-30T01:17:42.647Z,19.07
2022-07-30T01:20:16.283Z,19.03
2022-07-30T01:23:09.120Z,19.04
2022-07-30T01:25:53.210Z,19.01
2022-07-30T01:28:27.843Z,19.00
2022-07-30T01:31:17.608Z,19.01
2022-07-30T01:34:06.845Z,19.04
2022-07-30T01:36:58.549Z,19.02
2022-07-30T01:39:47.950Z,18.97
2022-07-30T01:42:37.585Z,18.92
2022-07-30T01:45:28.383Z,18.90
2022-07-30T01:48:21.789Z,18.84
2022-07-30T01:51:12.877Z,18.81
2022-07-30T01:53:46.288Z,18.81
2022-07-30T01:56:16.782Z,18.77
2022-07-30T01:58:49.389Z,18.74
2022-07-30T02:01:21.550Z,18.73
2022-07-30T02:03:49.636Z,18.73
2022-07-30T02:06:23.592Z,18.72
2022-07-30T02:09:01.784Z,18.71
2022-07-30T02:12:02.433Z,18.67
2022-07-30T02:14:39.327Z,18.65
2022-07-30T02:17:19.054Z,18.56
2022-07-30T02:19:51.572Z,18.58
2022-07-30T02:22:23.396Z,18.58
2022-07-30T02:25:17.781Z,18.54
2022-07-30T02:28:09.922Z,18.52
2022-07-30T02:31:00.089Z,18.46
2022-07-30T02:33:50.626Z,18.44
2022-07-30T02:36:42.199Z,18.43
2022-07-30T02:39:10.536Z,18.41
2022-07-30T02:41:40.266Z,18.37
2022-07-30T02:44:10.363Z,18.32
2022-07-30T02:46:43.071Z,18.34
2022-07-30T02:49:55.068Z,18.34
2022-07-30T02:52:43.493Z,18.34
2022-07-30T02:55:13.556Z,18.34
2022-07-30T02:57:43.651Z,18.30
2022-07-30T03:00:17.187Z,18.30
2022-07-30T03:02:46.403Z,18.30
2022-07-30T03:05:18.200Z,18.32
2022-07-30T03:07:46.799Z,18.31
2022-07-30T03:10:15.564Z,18.32
2022-07-30T03:12:46.449Z,18.22
2022-07-30T03:15:14.768Z,18.22
2022-07-30T03:17:49.147Z,18.20
2022-07-30T03:20:18.712Z,18.17
2022-07-30T03:22:51.057Z,18.14
2022-07-30T03:25:24.743Z,18.13
2022-07-30T03:27:54.809Z,18.11
2022-07-30T03:30:23.801Z,18.09
2022-07-30T03:33:13.206Z,18.11
2022-07-30T03:35:43.931Z,18.10
2022-07-30T03:38:15.629Z,18.09
2022-07-30T03:40:44.106Z,18.05
2022-07-30T03:43:32.261Z,18.06
2022-07-30T03:46:02.938Z,18.05
2022-07-30T03:48:35.297Z,18.05
2022-07-30T03:51:06.762Z,18.02
2022-07-30T03:53:34.589Z,17.99
2022-07-30T03:56:38.755Z,18.02
2022-07-30T03:59:09.422Z,18.01
2022-07-30T04:01:44.984Z,17.99
2022-07-30T04:04:34.715Z,17.98
2022-07-30T04:07:02.809Z,17.96
2022-07-30T04:09:30.473Z,17.94
2022-07-30T04:12:06.788Z,17.92
2022-07-30T04:14:42.544Z,17.90
2022-07-30T04:17:19.889Z,17.88
2022-07-30T04:19:53.559Z,17.86
2022-07-30T04:22:28.847Z,17.86
2022-07-30T04:24:57.649Z,17.83
2022-07-30T04:27:29.429Z,17.83
2022-07-30T04:29:57.739Z,17.84
2022-07-30T04:32:28.172Z,17.85
2022-07-30T04:35:50.225Z,17.83
2022-07-30T04:38:26.184Z,17.84
2022-07-30T04:40:53.705Z,17.83
2022-07-30T04:43:21.438Z,17.82
2022-07-30T04:45:50.461Z,17.81
2022-07-30T04:48:17.890Z,17.79
2022-07-30T04:51:09.929Z,17.78
2022-07-30T04:53:38.410Z,17.78
2022-07-30T04:56:07.117Z,17.83
2022-07-30T04:58:41.477Z,17.85
2022-07-30T05:01:11.187Z,17.86
2022-07-30T05:03:40.908Z,17.89
2022-07-30T05:06:09.716Z,17.90
2022-07-30T05:08:39.987Z,17.88
2022-07-30T05:11:15.496Z,17.89
2022-07-30T05:14:00.249Z,17.91
2022-07-30T05:16:30.896Z,17.89
2022-07-30T05:19:00.940Z,17.91
2022-07-30T05:21:37.532Z,17.91
2022-07-30T05:24:05.688Z,17.90
2022-07-30T05:26:39.651Z,17.90
2022-07-30T05:29:09.575Z,17.91
2022-07-30T05:31:50.171Z,17.91
2022-07-30T05:34:19.152Z,17.90
2022-07-30T05:36:47.158Z,17.90
2022-07-30T05:39:17.369Z,17.89
2022-07-30T05:42:03.631Z,17.91
2022-07-30T05:44:39.175Z,17.93
2022-07-30T05:47:06.786Z,17.95
2022-07-30T05:49:37.470Z,17.94
2022-07-30T05:52:10.530Z,17.95
2022-07-30T05:54:41.317Z,17.93
2022-07-30T05:57:30.234Z,17.92
2022-07-30T05:59:58.415Z,17.92
2022-07-30T06:02:44.162Z,17.96
2022-07-30T06:05:41.043Z,17.98
2022-07-30T06:08:08.952Z,17.97
2022-07-30T06:10:40.619Z,17.97
2022-07-30T06:13:11.729Z,17.99
2022-07-30T06:15:39.460Z,17.99
2022-07-30T06:18:07.657Z,17.98
2022-07-30T06:20:52.156Z,17.94
2022-07-30T06:23:31.592Z,17.95
2022-07-30T06:26:31.033Z,17.93
2022-07-30T06:29:18.829Z,17.96
2022-07-30T06:32:06.812Z,17.95
2022-07-30T06:35:04.141Z,17.97
2022-07-30T06:38:06.694Z,17.97
2022-07-30T06:40:45.411Z,18.01
2022-07-30T06:43:25.412Z,17.97
2022-07-30T06:46:31.147Z,17.93
2022-07-30T06:49:19.306Z,17.88
2022-07-30T06:56:59.626Z,17.86
2022-07-30T06:59:56.250Z,17.85
2022-07-30T07:02:31.400Z,17.86
2022-07-30T07:05:09.239Z,17.84
2022-07-30T07:07:42.229Z,17.87
2022-07-30T07:10:15.024Z,17.87
2022-07-30T07:12:58.079Z,17.85
2022-07-30T07:15:36.843Z,17.81
2022-07-30T07:18:08.527Z,17.80
2022-07-30T07:20:38.825Z,17.81
2022-07-30T07:23:12.032Z,17.82
2022-07-30T07:25:41.786Z,17.85
2022-07-30T07:28:11.809Z,17.87
2022-07-30T07:30:42.249Z,17.88
2022-07-30T07:33:10.416Z,17.90
2022-07-30T07:35:49.190Z,17.91
2022-07-30T07:38:23.076Z,17.87
2022-07-30T07:40:51.791Z,17.90
2022-07-30T07:43:19.292Z,17.90
2022-07-30T07:45:46.820Z,17.91
2022-07-30T07:48:14.398Z,17.93
2022-07-30T07:51:10.956Z,17.95
2022-07-30T07:53:38.537Z,17.98
2022-07-30T07:56:08.709Z,18.03
2022-07-30T07:58:38.283Z,18.05
2022-07-30T08:01:09.566Z,18.10
2022-07-30T08:03:56.630Z,18.09
2022-07-30T08:06:43.154Z,18.13
2022-07-30T08:09:43.798Z,18.09
2022-07-30T08:12:27.910Z,18.10
2022-07-30T08:15:16.230Z,18.12
2022-07-30T08:18:12.801Z,18.14
2022-07-30T08:20:51.692Z,18.11
2022-07-30T08:23:25.064Z,18.13
2022-07-30T08:25:52.607Z,18.12
2022-07-30T08:28:35.953Z,18.13
2022-07-30T08:31:07.827Z,18.14
2022-07-30T08:33:35.792Z,18.11
2022-07-30T08:36:09.438Z,18.12
2022-07-30T08:38:38.749Z,18.11
2022-07-30T08:41:07.780Z,18.12
2022-07-30T08:43:36.925Z,18.16
2022-07-30T08:46:10.591Z,18.19
2022-07-30T08:48:52.920Z,18.17
2022-07-30T08:51:22.912Z,18.21
2022-07-30T08:53:53.377Z,18.29
2022-07-30T08:56:21.505Z,18.31
2022-07-30T08:58:50.307Z,18.34
2022-07-30T09:01:17.944Z,18.40
2022-07-30T09:03:45.882Z,18.47
2022-07-30T09:06:15.104Z,18.52
2022-07-30T09:08:43.217Z,18.61
2022-07-30T09:11:11.844Z,18.66
2022-07-30T09:13:48.590Z,18.68
2022-07-30T09:16:26.671Z,18.73
2022-07-30T09:18:57.280Z,18.79
2022-07-30T09:21:28.601Z,18.83
2022-07-30T09:24:28.905Z,18.83
2022-07-30T09:27:14.844Z,18.88
2022-07-30T09:30:01.111Z,18.89
2022-07-30T09:32:55.966Z,18.97
2022-07-30T09:36:01.867Z,19.05
2022-07-30T09:38:52.317Z,19.11
2022-07-30T09:41:55.030Z,19.09
2022-07-30T09:44:27.893Z,19.13
2022-07-30T09:46:58.269Z,19.14
2022-07-30T09:49:30.947Z,19.12
2022-07-30T09:51:58.608Z,19.16
2022-07-30T09:55:02.024Z,19.21
2022-07-30T09:57:31.768Z,19.28
2022-07-30T10:00:24.226Z,19.34
2022-07-30T10:03:33.974Z,19.44
2022-07-30T10:06:44.615Z,19.51
2022-07-30T10:09:27.261Z,19.54
2022-07-30T10:11:59.891Z,19.63
2022-07-30T10:14:34.264Z,19.73
2022-07-30T10:17:10.587Z,19.79
2022-07-30T10:19:44.010Z,19.82
2022-07-30T10:22:47.094Z,19.83
2022-07-30T10:25:49.709Z,19.86
2022-07-30T10:28:41.854Z,20.09
2022-07-30T10:31:48.693Z,20.26
2022-07-30T10:33:58.311Z,20.39
2022-07-30T10:36:26.496Z,20.36
2022-07-30T10:38:55.314Z,20.36
2022-07-30T10:41:54.014Z,20.32
2022-07-30T10:44:33.929Z,20.30
2022-07-30T10:47:07.710Z,20.30
2022-07-30T10:49:41.134Z,20.26
2022-07-30T10:52:12.112Z,20.18
2022-07-30T10:54:42.668Z,20.09
2022-07-30T10:57:15.039Z,20.16
2022-07-30T11:00:09.714Z,20.50
2022-07-30T11:02:37.614Z,20.76
2022-07-30T11:05:45.157Z,20.83
2022-07-30T11:08:42.859Z,20.71
2022-07-30T11:11:59.224Z,20.72
2022-07-30T11:14:10.319Z,20.75
2022-07-30T11:16:40.732Z,20.78
2022-07-30T11:19:56.837Z,20.83
2022-07-30T11:22:29.726Z,20.85
2022-07-30T11:24:58.161Z,20.85
2022-07-30T11:27:41.524Z,20.88
2022-07-30T11:30:18.928Z,20.88
2022-07-30T11:32:48.404Z,20.87
2022-07-30T11:35:23.671Z,20.91
2022-07-30T11:38:04.717Z,20.96
2022-07-30T11:40:56.904Z,21.08
2022-07-30T11:43:34.698Z,21.22
2022-07-30T11:46:10.300Z,21.31
2022-07-30T11:48:43.270Z,21.32
2022-07-30T11:51:12.125Z,21.32
2022-07-30T11:53:39.693Z,21.37
2022-07-30T11:56:09.622Z,21.48
2022-07-30T11:58:41.412Z,21.54
2022-07-30T12:01:14.059Z,21.53
2022-07-30T12:03:43.585Z,21.54
2022-07-30T12:06:19.906Z,21.74
2022-07-30T12:08:51.204Z,21.96
2022-07-30T12:11:21.131Z,22.09
2022-07-30T12:14:00.672Z,22.16
2022-07-30T12:16:30.440Z,22.05
2022-07-30T12:19:06.808Z,21.91
2022-07-30T12:21:37.414Z,21.83
2022-07-30T12:24:07.701Z,21.73
2022-07-30T12:26:36.246Z,21.66
2022-07-30T12:29:10.307Z,21.55
2022-07-30T12:31:40.273Z,21.45
2022-07-30T12:34:24.830Z,21.38
2022-07-30T12:36:53.145Z,21.37
2022-07-30T12:39:23.120Z,21.30
2022-07-30T12:41:52.222Z,21.29
2022-07-30T12:44:38.209Z,21.37
2022-07-30T12:47:19.401Z,21.37
2022-07-30T12:49:49.698Z,21.43
2022-07-30T12:52:54.896Z,21.50
2022-07-30T12:55:33.312Z,21.60
2022-07-30T12:58:08.027Z,21.73
2022-07-30T13:00:52.975Z,21.80
2022-07-30T13:03:29.266Z,21.85
2022-07-30T13:05:57.523Z,21.93
2022-07-30T13:08:48.178Z,21.87
2022-07-30T13:11:16.765Z,21.90
2022-07-30T13:13:44.617Z,21.98
2022-07-30T13:16:12.502Z,21.95
2022-07-30T13:18:40.800Z,21.92
2022-07-30T13:21:09.479Z,21.89
2022-07-30T13:23:40.224Z,22.10
2022-07-30T13:26:09.181Z,22.35
2022-07-30T13:28:36.748Z,22.55
2022-07-30T13:31:04.734Z,22.68
2022-07-30T13:33:32.276Z,22.77
2022-07-30T13:35:59.802Z,22.80
2022-07-30T13:38:28.605Z,22.93
2022-07-30T13:41:01.900Z,23.10
2022-07-30T13:43:33.639Z,23.15
2022-07-30T13:46:05.250Z,23.03
2022-07-30T13:48:33.324Z,23.20
2022-07-30T13:51:01.037Z,23.39
2022-07-30T13:53:29.621Z,23.59
2022-07-30T13:55:59.567Z,23.66
2022-07-30T13:58:28.791Z,23.58
2022-07-30T14:00:58.151Z,23.43
2022-07-30T14:03:25.654Z,23.34
2022-07-30T14:05:53.260Z,23.37
2022-07-30T14:08:20.978Z,23.44
2022-07-30T14:10:48.553Z,23.57
2022-07-30T14:13:21.435Z,23.59
2022-07-30T14:15:49.088Z,23.49
2022-07-30T14:18:17.025Z,23.41
2022-07-30T14:20:48.418Z,23.40
2022-07-30T14:23:16.923Z,23.38
2022-07-30T14:25:44.894Z,23.32
2022-07-30T14:28:12.700Z,23.23
2022-07-30T14:30:41.377Z,23.15
2022-07-30T14:33:08.902Z,23.07
2022-07-30T14:35:36.457Z,23.01
2022-07-30T14:38:04.108Z,22.91
2022-07-30T14:40:33.436Z,22.69
2022-07-30T14:43:01.592Z,22.46
2022-07-30T14:45:29.329Z,22.31
2022-07-30T14:47:57.690Z,22.16
2022-07-30T14:50:25.193Z,22.13
2022-07-30T14:52:52.831Z,22.11
2022-07-30T14:55:20.408Z,22.07
2022-07-30T14:57:48.867Z,22.07
2022-07-30T15:00:16.767Z,22.11
2022-07-30T15:02:44.263Z,22.13
2022-07-30T15:05:12.911Z,22.11
2022-07-30T15:07:43.565Z,22.18
2022-07-30T15:10:11.278Z,22.24
2022-07-30T15:12:38.788Z,22.28
2022-07-30T15:15:08.392Z,22.26
2022-07-30T15:17:38.979Z,22.22
2022-07-30T15:20:09.240Z,22.21
2022-07-30T15:22:36.845Z,22.24
2022-07-30T15:25:05.557Z,22.32
2022-07-30T15:27:34.257Z,22.36
2022-07-30T15:30:02.345Z,22.32
2022-07-30T15:32:29.832Z,22.29
2022-07-30T15:34:58.842Z,22.27
2022-07-30T15:37:26.771Z,22.24
2022-07-30T15:39:54.195Z,22.17
2022-07-30T15:42:22.533Z,22.15
2022-07-30T15:45:14.302Z,22.15
2022-07-30T15:47:37.911Z,22.10
2022-07-30T15:50:09.267Z,22.05
2022-07-30T15:52:37.640Z,21.98
2022-07-30T15:55:06.872Z,21.89
2022-07-30T15:57:34.393Z,21.89
2022-07-30T16:00:02.710Z,21.90
2022-07-30T16:02:40.076Z,21.85
2022-07-30T16:05:13.443Z,21.70
2022-07-30T16:07:43.325Z,21.64
2022-07-30T16:10:10.932Z,21.52
2022-07-30T16:12:39.731Z,21.45
2022-07-30T16:15:09.871Z,21.44
2022-07-30T16:17:38.579Z,21.39
2022-07-30T16:20:09.118Z,21.35
2022-07-30T16:22:39.242Z,21.32
2022-07-30T16:25:08.081Z,21.22
2022-07-30T16:27:37.392Z,21.22
2022-07-30T16:30:06.961Z,21.19
2022-07-30T16:32:35.164Z,21.15
2022-07-30T16:35:03.578Z,21.14
2022-07-30T16:37:31.316Z,21.12
2022-07-30T16:39:59.387Z,21.11
2022-07-30T16:42:27.189Z,21.12
2022-07-30T16:44:55.788Z,21.04
2022-07-30T16:47:23.368Z,21.01
2022-07-30T16:49:50.815Z,21.01
2022-07-30T16:52:18.860Z,21.01
2022-07-30T16:54:46.369Z,21.01
2022-07-30T16:57:14.107Z,20.99
2022-07-30T16:59:42.267Z,20.96
2022-07-30T17:02:11.477Z,20.90
2022-07-30T17:04:40.050Z,20.86
2022-07-30T17:07:07.614Z,20.80
2022-07-30T17:09:36.996Z,20.77
2022-07-30T17:12:07.913Z,20.78
2022-07-30T17:14:43.257Z,20.75
2022-07-30T17:17:14.412Z,20.76
2022-07-30T17:19:43.232Z,20.73
2022-07-30T17:22:10.876Z,20.72
2022-07-30T17:24:38.364Z,20.67
2022-07-30T17:27:05.852Z,20.63
2022-07-30T17:29:33.361Z,20.64
2022-07-30T17:32:01.336Z,20.61
2022-07-30T17:34:29.101Z,20.61
2022-07-30T17:36:56.747Z,20.62
2022-07-30T17:40:27.113Z,20.66
2022-07-30T17:42:12.377Z,20.66
2022-07-30T17:44:41.544Z,20.70
2022-07-30T17:47:14.425Z,20.74
2022-07-30T17:49:44.150Z,20.75
2022-07-30T17:52:11.662Z,20.75
2022-07-30T17:54:39.108Z,20.72
2022-07-30T17:57:07.309Z,20.67
2022-07-30T17:59:34.812Z,20.67
2022-07-30T18:02:04.756Z,20.65
2022-07-30T18:04:32.719Z,20.64
2022-07-30T18:07:00.609Z,20.58
2022-07-30T18:09:28.508Z,20.52
2022-07-30T18:11:56.302Z,20.52
2022-07-30T18:18:02.737Z,20.51
2022-07-30T18:20:50.597Z,20.52
2022-07-30T18:23:19.433Z,20.46
2022-07-30T18:25:57.784Z,20.43
2022-07-30T18:28:48.855Z,20.44
2022-07-30T18:31:17.250Z,20.43
2022-07-30T18:33:45.308Z,20.45
2022-07-30T18:36:12.893Z,20.42
2022-07-30T18:38:40.946Z,20.38
2022-07-30T18:41:08.396Z,20.39
2022-07-30T18:43:55.096Z,20.36
2022-07-30T18:46:30.246Z,20.37
2022-07-30T18:49:34.987Z,20.35
2022-07-30T18:52:40.697Z,20.32
2022-07-30T18:55:11.833Z,20.32
2022-07-30T18:57:41.565Z,20.31
2022-07-30T19:00:35.346Z,20.23
2022-07-30T19:03:03.860Z,20.21
2022-07-30T19:05:32.330Z,20.22
2022-07-30T19:08:09.576Z,20.22
2022-07-30T19:10:37.596Z,20.24
2022-07-30T19:13:05.762Z,20.22
2022-07-30T19:15:33.817Z,20.18
2022-07-30T19:18:01.988Z,20.16
2022-07-30T19:20:29.990Z,20.13
2022-07-30T19:23:05.829Z,20.12
2022-07-30T19:25:34.552Z,20.14
2022-07-30T19:28:05.087Z,20.13
2022-07-30T19:30:36.221Z,20.14
2022-07-30T19:33:13.979Z,20.10
2022-07-30T19:35:42.712Z,20.08
2022-07-30T19:38:11.916Z,20.06
2022-07-30T19:44:19.788Z,20.01
2022-07-30T19:46:48.735Z,20.02
2022-07-30T19:52:55.008Z,19.99
2022-07-30T20:02:35.800Z,19.92
2022-07-30T20:05:10.840Z,19.90
2022-07-30T20:08:18.653Z,19.87
2022-07-30T20:10:52.677Z,19.86
2022-07-30T20:17:38.752Z,19.79
2022-07-30T20:24:11.400Z,19.78
2022-07-30T20:27:42.885Z,19.80
2022-07-30T20:37:22.321Z,19.76
2022-07-30T20:43:54.947Z,19.72
2022-07-30T20:46:42.789Z,19.73
2022-07-30T20:49:13.474Z,19.72
2022-07-30T20:51:41.739Z,19.74
2022-07-30T20:54:09.286Z,19.75
2022-07-30T20:56:36.825Z,19.76
2022-07-30T20:59:04.294Z,19.74
2022-07-30T21:01:31.741Z,19.75
2022-07-30T21:04:29.351Z,19.68
2022-07-30T21:06:56.934Z,19.72
2022-07-30T21:10:07.408Z,19.69
2022-07-30T21:12:36.592Z,19.68
2022-07-30T21:15:26.342Z,19.64
2022-07-30T21:18:23.384Z,19.65
2022-07-30T21:21:07.300Z,19.61
2022-07-30T21:27:29.780Z,19.66
2022-07-30T21:37:08.964Z,19.62
2022-07-30T21:39:56.730Z,19.60
2022-07-30T21:42:36.570Z,19.54
2022-07-30T21:45:19.080Z,19.49
2022-07-30T21:47:48.029Z,19.51
2022-07-30T21:50:16.624Z,19.48
2022-07-30T21:53:06.120Z,19.47
2022-07-30T21:55:53.098Z,19.47
2022-07-30T21:58:48.556Z,19.49
2022-07-30T22:08:00.152Z,19.47
2022-07-30T22:10:28.132Z,19.49
2022-07-30T22:13:01.314Z,19.49
2022-07-30T22:19:10.053Z,19.46
2022-07-30T22:21:37.589Z,19.43
2022-07-30T22:25:06.957Z,19.41
2022-07-30T22:27:56.360Z,19.42
2022-07-30T22:30:27.493Z,19.45
2022-07-30T22:33:18.320Z,19.43
2022-07-30T22:35:49.649Z,19.45
2022-07-30T22:38:19.586Z,19.40
2022-07-30T22:40:47.424Z,19.39
2022-07-30T22:43:16.970Z,19.37
2022-07-30T22:46:14.707Z,19.33
2022-07-30T22:48:42.564Z,19.30
2022-07-30T22:51:11.939Z,19.26
2022-07-30T22:57:05.675Z,19.23
2022-07-30T22:59:58.574Z,19.20
2022-07-30T23:02:29.372Z,19.22
2022-07-30T23:04:58.826Z,19.24
2022-07-30T23:08:01.856Z,19.19
2022-07-30T23:17:43.995Z,19.12
2022-07-30T23:24:02.528Z,19.07
2022-07-30T23:26:30.182Z,19.06
2022-07-30T23:28:57.775Z,19.04
2022-07-30T23:31:26.965Z,19.04
2022-07-30T23:33:54.698Z,19.06
2022-07-30T23:36:22.662Z,19.08
2022-07-30T23:38:50.118Z,18.98
2022-07-30T23:41:29.446Z,18.87
2022-07-30T23:44:46.280Z,18.69
2022-07-30T23:47:49.579Z,18.52
2022-07-30T23:50:14.332Z,18.43
2022-07-30T23:52:42.467Z,18.35
2022-07-30T23:55:10.186Z,18.29
2022-07-30T23:57:39.593Z,18.29
